Wetterdaten: Donnerstag, 17.12.2015
Datum Zeit Auen-Temp. Temp gefhlt Luftfeuchte Luftdruck Regen Wind Richtung Richtung Taupunkt Windben
17.12.2015 00:00 6,5 C 6,4 C 93 % 1030,0 hPa 0,0 mm 5,7 km/h (1 Bft) SW 225 5,5 C 9,8 km/h (2 Bft)
17.12.2015 00:05 6,5 C 6,4 C 93 % 1030,0 hPa 0,0 mm 7,3 km/h (2 Bft) S 180 5,5 C 7,8 km/h (2 Bft)
17.12.2015 00:10 6,6 C 6,6 C 93 % 1030,0 hPa 0,7 mm 5,7 km/h (1 Bft) SW 225 5,6 C 16,1 km/h (3 Bft)
17.12.2015 00:15 6,8 C 6,7 C 93 % 1030,0 hPa 0,0 mm 6,7 km/h (2 Bft) SW 225 5,7 C 8,5 km/h (2 Bft)
17.12.2015 00:20 6,8 C 6,7 C 93 % 1030,0 hPa 0,0 mm 6,7 km/h (2 Bft) S 180 5,7 C 0,0 km/h (0 Bft)
17.12.2015 00:25 6,7 C 6,9 C 93 % 1030,0 hPa 0,0 mm 3,6 km/h (1 Bft) S-SO 157 5,6 C 0,0 km/h (0 Bft)
17.12.2015 00:30 6,5 C 6,7 C 93 % 1030,0 hPa 0,0 mm 0,8 km/h (0 Bft) SO 135 5,5 C 0,0 km/h (0 Bft)
17.12.2015 00:35 6,4 C 6,6 C 93 % 1029,8 hPa 0,0 mm 0,5 km/h (0 Bft) O-SO 112 5,4 C 0,0 km/h (0 Bft)
17.12.2015 00:39 6,3 C 6,5 C 93 % 1029,8 hPa 0,0 mm 0,5 km/h (0 Bft) S 180 5,3 C 0,0 km/h (0 Bft)
17.12.2015 00:40 6,3 C 6,5 C 93 % 1029,8 hPa 0,0 mm 0,5 km/h (0 Bft) S 180 5,3 C 0,0 km/h (0 Bft)
17.12.2015 00:45 6,3 C 6,5 C 93 % 1029,8 hPa 0,0 mm 2,1 km/h (1 Bft) W-SW 247 5,3 C 10,6 km/h (2 Bft)
17.12.2015 00:50 6,3 C 6,4 C 93 % 1029,8 hPa 0,0 mm 2,6 km/h (1 Bft) S 180 5,3 C 0,0 km/h (0 Bft)
17.12.2015 00:55 6,2 C 6,3 C 93 % 1030,0 hPa 0,0 mm 1,6 km/h (1 Bft) S-SO 157 5,2 C 2,8 km/h (1 Bft)
17.12.2015 01:00 6,2 C 6,2 C 93 % 1030,0 hPa 0,7 mm 1,6 km/h (1 Bft) S 180 5,2 C 4,1 km/h (1 Bft)
17.12.2015 01:05 6,2 C 6,2 C 93 % 1030,0 hPa 0,0 mm 1,6 km/h (1 Bft) W-SW 247 5,2 C 0,0 km/h (0 Bft)
17.12.2015 01:10 6,2 C 6,2 C 93 % 1030,0 hPa 0,0 mm 0,5 km/h (0 Bft) SW 225 5,2 C 6,0 km/h (2 Bft)
17.12.2015 01:15 6,2 C 6,2 C 93 % 1029,8 hPa 0,0 mm 0,8 km/h (0 Bft) S 180 5,2 C 0,0 km/h (0 Bft)
17.12.2015 01:20 6,2 C 6,2 C 93 % 1029,8 hPa 0,0 mm 1,8 km/h (1 Bft) W-SW 247 5,2 C 6,0 km/h (2 Bft)
17.12.2015 01:25 6,1 C 6,2 C 93 % 1029,8 hPa 0,0 mm 1,8 km/h (1 Bft) SW 225 5,1 C 0,0 km/h (0 Bft)
17.12.2015 01:30 6,2 C 6,2 C 93 % 1029,8 hPa 0,0 mm 3,4 km/h (1 Bft) W-SW 247 5,2 C 7,8 km/h (2 Bft)
17.12.2015 01:35 6,1 C 6,2 C 93 % 1029,7 hPa 0,0 mm 2,6 km/h (1 Bft) S-SW 202 5,1 C 4,7 km/h (1 Bft)
17.12.2015 01:40 6,1 C 6,2 C 93 % 1029,7 hPa 0,7 mm 2,3 km/h (1 Bft) S 180 5,1 C 0,0 km/h (0 Bft)
17.12.2015 01:45 6,0 C 6,2 C 93 % 1029,7 hPa 0,0 mm 1,3 km/h (1 Bft) S 180 5,0 C 0,0 km/h (0 Bft)
17.12.2015 01:50 6,0 C 6,1 C 93 % 1029,7 hPa 0,0 mm 0,3 km/h (0 Bft) SW 225 5,0 C 0,0 km/h (0 Bft)
17.12.2015 01:55 5,9 C 6,1 C 94 % 1029,8 hPa 0,0 mm 0,3 km/h (0 Bft) S-SW 202 5,0 C 0,0 km/h (0 Bft)
17.12.2015 02:00 5,9 C 6,1 C 94 % 1029,8 hPa 0,0 mm 0,0 km/h (0 Bft) S 180 5,0 C 0,0 km/h (0 Bft)
17.12.2015 02:05 5,8 C 6,1 C 94 % 1029,8 hPa 0,0 mm 0,0 km/h (0 Bft) S 180 4,9 C 0,0 km/h (0 Bft)
17.12.2015 02:10 5,8 C 6,0 C 94 % 1029,8 hPa 0,7 mm 0,0 km/h (0 Bft) S 180 4,9 C 0,0 km/h (0 Bft)
17.12.2015 02:15 6,0 C 6,0 C 93 % 1029,7 hPa 0,0 mm 0,5 km/h (0 Bft) S 180 5,0 C 0,0 km/h (0 Bft)
17.12.2015 02:20 6,1 C 6,2 C 93 % 1029,7 hPa 0,0 mm 0,5 km/h (0 Bft) S-SW 202 5,1 C 0,0 km/h (0 Bft)
17.12.2015 02:25 6,1 C 6,2 C 93 % 1029,7 hPa 0,0 mm 0,3 km/h (0 Bft) S-SW 202 5,1 C 0,0 km/h (0 Bft)
17.12.2015 02:30 5,8 C 6,2 C 94 % 1029,7 hPa 0,0 mm 0,0 km/h (0 Bft) S 180 4,9 C 0,0 km/h (0 Bft)
17.12.2015 02:35 5,7 C 6,1 C 94 % 1029,8 hPa 0,0 mm 0,3 km/h (0 Bft) S 180 4,8 C 0,0 km/h (0 Bft)
17.12.2015 02:40 6,1 C 6,2 C 93 % 1029,8 hPa 0,0 mm 2,6 km/h (1 Bft) SW 225 5,1 C 7,8 km/h (2 Bft)
17.12.2015 02:45 6,2 C 6,3 C 93 % 1029,8 hPa 0,0 mm 4,7 km/h (1 Bft) W 270 5,2 C 7,3 km/h (2 Bft)
17.12.2015 02:50 6,3 C 6,3 C 93 % 1029,8 hPa 0,0 mm 5,4 km/h (1 Bft) SW 225 5,3 C 7,3 km/h (2 Bft)
17.12.2015 02:55 6,3 C 6,5 C 93 % 1029,5 hPa 0,0 mm 4,7 km/h (1 Bft) S 180 5,3 C 6,2 km/h (2 Bft)
17.12.2015 03:00 6,2 C 6,5 C 93 % 1029,5 hPa 0,7 mm 4,1 km/h (1 Bft) W-SW 247 5,2 C 3,6 km/h (1 Bft)
17.12.2015 03:05 6,4 C 6,5 C 94 % 1029,5 hPa 0,0 mm 4,1 km/h (1 Bft) W 270 5,5 C 3,4 km/h (1 Bft)
17.12.2015 03:10 6,3 C 6,6 C 94 % 1029,5 hPa 0,0 mm 2,1 km/h (1 Bft) W 270 5,4 C 0,0 km/h (0 Bft)
17.12.2015 03:15 6,4 C 6,6 C 94 % 1029,5 hPa 0,0 mm 1,6 km/h (1 Bft) SW 225 5,5 C 3,1 km/h (1 Bft)
17.12.2015 03:20 6,4 C 6,7 C 94 % 1029,5 hPa 0,0 mm 1,3 km/h (1 Bft) SW 225 5,5 C 0,0 km/h (0 Bft)
17.12.2015 03:25 6,5 C 6,8 C 94 % 1029,5 hPa 0,0 mm 2,1 km/h (1 Bft) W 270 5,6 C 0,0 km/h (0 Bft)
17.12.2015 03:30 6,5 C 6,8 C 94 % 1029,5 hPa 0,0 mm 1,8 km/h (1 Bft) W-SW 247 5,6 C 4,4 km/h (1 Bft)
17.12.2015 03:35 6,6 C 6,8 C 94 % 1029,5 hPa 0,0 mm 1,0 km/h (0 Bft) W-SW 247 5,7 C 0,0 km/h (0 Bft)
17.12.2015 03:40 6,6 C 6,9 C 94 % 1029,5 hPa 0,0 mm 0,8 km/h (0 Bft) W-SW 247 5,7 C 4,7 km/h (1 Bft)
17.12.2015 03:45 6,8 C 6,9 C 94 % 1029,5 hPa 0,7 mm 2,1 km/h (1 Bft) S-SW 202 5,9 C 8,0 km/h (2 Bft)
17.12.2015 03:50 7,0 C 7,0 C 94 % 1029,5 hPa 0,0 mm 3,6 km/h (1 Bft) S 180 6,1 C 6,5 km/h (2 Bft)
17.12.2015 03:55 7,1 C 7,1 C 94 % 1029,3 hPa 0,0 mm 5,4 km/h (1 Bft) W-SW 247 6,2 C 6,7 km/h (2 Bft)
17.12.2015 04:00 7,1 C 7,0 C 94 % 1029,3 hPa 0,0 mm 6,7 km/h (2 Bft) W-SW 247 6,2 C 18,9 km/h (3 Bft)
17.12.2015 04:05 7,2 C 7,1 C 94 % 1029,3 hPa 0,0 mm 6,5 km/h (2 Bft) W-NW 292 6,3 C 9,3 km/h (2 Bft)
17.12.2015 04:10 7,2 C 7,0 C 94 % 1029,3 hPa 0,0 mm 7,5 km/h (2 Bft) W-SW 247 6,3 C 10,9 km/h (2 Bft)
17.12.2015 04:15 7,2 C 7,0 C 94 % 1029,4 hPa 0,0 mm 7,8 km/h (2 Bft) SW 225 6,3 C 11,1 km/h (2 Bft)
17.12.2015 04:20 7,2 C 7,1 C 94 % 1029,4 hPa 0,0 mm 6,7 km/h (2 Bft) S 180 6,3 C 4,4 km/h (1 Bft)
17.12.2015 04:25 7,2 C 7,2 C 94 % 1029,4 hPa 0,0 mm 5,7 km/h (1 Bft) SW 225 6,3 C 8,8 km/h (2 Bft)
17.12.2015 04:30 7,2 C 7,2 C 94 % 1029,4 hPa 0,0 mm 6,0 km/h (2 Bft) S-SO 157 6,3 C 5,4 km/h (1 Bft)
17.12.2015 04:35 7,3 C 7,2 C 94 % 1029,3 hPa 0,0 mm 6,2 km/h (2 Bft) S-SW 202 6,4 C 6,5 km/h (2 Bft)
17.12.2015 04:40 7,3 C 7,1 C 94 % 1029,3 hPa 0,0 mm 7,3 km/h (2 Bft) W-SW 247 6,4 C 21,5 km/h (4 Bft)
17.12.2015 04:45 7,3 C 7,2 C 94 % 1029,3 hPa 0,0 mm 7,0 km/h (2 Bft) W 270 6,4 C 6,5 km/h (2 Bft)
17.12.2015 04:50 7,3 C 7,3 C 94 % 1029,3 hPa 0,0 mm 4,7 km/h (1 Bft) SW 225 6,4 C 4,1 km/h (1 Bft)
17.12.2015 04:55 7,2 C 7,2 C 94 % 1029,3 hPa 0,0 mm 4,4 km/h (1 Bft) W-SW 247 6,3 C 6,0 km/h (2 Bft)
17.12.2015 05:00 7,2 C 7,2 C 94 % 1029,3 hPa 0,0 mm 3,6 km/h (1 Bft) SW 225 6,3 C 3,9 km/h (1 Bft)
17.12.2015 05:05 7,2 C 7,2 C 94 % 1029,3 hPa 0,0 mm 3,6 km/h (1 Bft) W-SW 247 6,3 C 5,4 km/h (1 Bft)
17.12.2015 05:10 7,1 C 7,1 C 94 % 1029,3 hPa 0,0 mm 2,3 km/h (1 Bft) S 180 6,2 C 0,0 km/h (0 Bft)
17.12.2015 05:15 7,2 C 7,2 C 94 % 1029,3 hPa 0,0 mm 2,3 km/h (1 Bft) S 180 6,3 C 3,9 km/h (1 Bft)
17.12.2015 05:20 7,1 C 7,1 C 94 % 1029,3 hPa 0,0 mm 2,3 km/h (1 Bft) W-SW 247 6,2 C 5,4 km/h (1 Bft)
17.12.2015 05:25 7,1 C 7,1 C 94 % 1029,3 hPa 0,0 mm 2,1 km/h (1 Bft) S-SO 157 6,2 C 0,0 km/h (0 Bft)
17.12.2015 05:30 7,0 C 7,0 C 94 % 1029,3 hPa 0,0 mm 0,5 km/h (0 Bft) S-SO 157 6,1 C 0,0 km/h (0 Bft)
17.12.2015 05:35 7,0 C 7,0 C 94 % 1029,3 hPa 0,0 mm 0,3 km/h (0 Bft) SO 135 6,1 C 0,0 km/h (0 Bft)
17.12.2015 05:40 6,7 C 6,9 C 94 % 1029,3 hPa 0,0 mm 0,8 km/h (0 Bft) SW 225 5,8 C 5,4 km/h (1 Bft)
17.12.2015 05:45 6,7 C 6,8 C 94 % 1029,3 hPa 0,0 mm 1,0 km/h (0 Bft) SW 225 5,8 C 2,6 km/h (1 Bft)
17.12.2015 05:50 6,8 C 6,8 C 94 % 1029,3 hPa 0,0 mm 2,8 km/h (1 Bft) SW 225 5,9 C 6,7 km/h (2 Bft)
17.12.2015 05:55 6,8 C 6,8 C 94 % 1029,5 hPa 0,0 mm 2,6 km/h (1 Bft) SW 225 5,9 C 5,2 km/h (1 Bft)
17.12.2015 06:00 6,7 C 6,7 C 94 % 1029,5 hPa 0,0 mm 2,6 km/h (1 Bft) SW 225 5,8 C 3,6 km/h (1 Bft)
17.12.2015 06:05 6,6 C 6,7 C 94 % 1029,5 hPa 0,0 mm 3,1 km/h (1 Bft) SW 225 5,7 C 3,4 km/h (1 Bft)
17.12.2015 06:10 6,3 C 6,6 C 94 % 1029,5 hPa 0,0 mm 1,3 km/h (1 Bft) W 270 5,4 C 0,0 km/h (0 Bft)
17.12.2015 06:15 6,1 C 6,3 C 94 % 1029,5 hPa 0,0 mm 0,8 km/h (0 Bft) SW 225 5,2 C 8,3 km/h (2 Bft)
17.12.2015 06:20 5,9 C 6,2 C 95 % 1029,5 hPa 0,0 mm 2,1 km/h (1 Bft) W 270 5,2 C 5,4 km/h (1 Bft)
17.12.2015 06:25 6,0 C 6,2 C 94 % 1029,5 hPa 0,0 mm 2,8 km/h (1 Bft) S 180 5,1 C 0,0 km/h (0 Bft)
17.12.2015 06:30 6,4 C 6,4 C 94 % 1029,5 hPa 0,0 mm 2,6 km/h (1 Bft) S 180 5,5 C 5,4 km/h (1 Bft)
17.12.2015 06:35 6,4 C 6,4 C 94 % 1029,8 hPa 0,0 mm 3,4 km/h (1 Bft) S-SW 202 5,5 C 6,7 km/h (2 Bft)
17.12.2015 06:40 6,0 C 6,4 C 94 % 1029,8 hPa 0,0 mm 2,3 km/h (1 Bft) O-NO 67 5,1 C 3,4 km/h (1 Bft)
17.12.2015 06:45 5,7 C 6,2 C 95 % 1029,8 hPa 0,0 mm 1,3 km/h (1 Bft) O-NO 67 5,0 C 0,0 km/h (0 Bft)
17.12.2015 06:50 5,7 C 6,0 C 95 % 1029,8 hPa 0,0 mm 0,3 km/h (0 Bft) SO 135 5,0 C 0,0 km/h (0 Bft)
17.12.2015 06:55 5,8 C 6,0 C 95 % 1030,0 hPa 0,0 mm 0,0 km/h (0 Bft) SO 135 5,1 C 0,0 km/h (0 Bft)
17.12.2015 07:00 5,6 C 6,0 C 95 % 1030,0 hPa 0,0 mm 0,3 km/h (0 Bft) NW 315 4,9 C 0,0 km/h (0 Bft)
17.12.2015 07:05 5,6 C 5,8 C 95 % 1030,0 hPa 0,0 mm 0,3 km/h (0 Bft) NW 315 4,9 C 0,0 km/h (0 Bft)
17.12.2015 07:10 5,7 C 5,7 C 95 % 1030,0 hPa 0,0 mm 0,3 km/h (0 Bft) S 180 5,0 C 3,9 km/h (1 Bft)
17.12.2015 07:15 6,0 C 6,0 C 94 % 1030,2 hPa 0,0 mm 0,8 km/h (0 Bft) W-SW 247 5,1 C 2,6 km/h (1 Bft)
17.12.2015 07:20 6,2 C 6,2 C 94 % 1030,2 hPa 0,0 mm 2,3 km/h (1 Bft) SW 225 5,3 C 9,8 km/h (2 Bft)
17.12.2015 07:25 6,3 C 6,3 C 94 % 1030,2 hPa 0,0 mm 4,1 km/h (1 Bft) W-SW 247 5,4 C 9,8 km/h (2 Bft)
17.12.2015 07:30 6,4 C 6,3 C 94 % 1030,2 hPa 0,0 mm 5,4 km/h (1 Bft) SO 135 5,5 C 3,1 km/h (1 Bft)
17.12.2015 07:35 6,4 C 6,4 C 94 % 1030,2 hPa 0,0 mm 4,7 km/h (1 Bft) O-SO 112 5,5 C 2,8 km/h (1 Bft)
17.12.2015 07:40 6,5 C 6,5 C 94 % 1030,2 hPa 0,0 mm 1,8 km/h (1 Bft) S 180 5,6 C 0,0 km/h (0 Bft)
17.12.2015 07:45 6,5 C 6,5 C 94 % 1030,2 hPa 0,0 mm 0,5 km/h (0 Bft) W-SW 247 5,6 C 2,8 km/h (1 Bft)
17.12.2015 07:50 6,2 C 6,4 C 94 % 1030,2 hPa 0,0 mm 0,0 km/h (0 Bft) N-NW 337 5,3 C 0,0 km/h (0 Bft)
17.12.2015 07:55 6,1 C 6,2 C 94 % 1030,2 hPa 0,0 mm 0,0 km/h (0 Bft) S-SO 157 5,2 C 0,0 km/h (0 Bft)
17.12.2015 08:00 6,4 C 6,4 C 94 % 1030,2 hPa 0,0 mm 2,1 km/h (1 Bft) S 180 5,5 C 0,0 km/h (0 Bft)
17.12.2015 08:05 6,4 C 6,4 C 94 % 1030,2 hPa 0,0 mm 2,1 km/h (1 Bft) O-SO 112 5,5 C 2,6 km/h (1 Bft)
17.12.2015 08:10 6,1 C 6,2 C 94 % 1030,2 hPa 0,0 mm 0,3 km/h (0 Bft) N-NO 22 5,2 C 0,0 km/h (0 Bft)
17.12.2015 08:15 5,6 C 6,0 C 95 % 1030,0 hPa 0,0 mm 0,8 km/h (0 Bft) NW 315 4,9 C 0,0 km/h (0 Bft)
17.12.2015 08:20 5,3 C 5,7 C 95 % 1030,0 hPa 0,0 mm 1,0 km/h (0 Bft) SO 135 4,6 C 0,0 km/h (0 Bft)
17.12.2015 08:25 5,3 C 5,5 C 95 % 1030,0 hPa 0,0 mm 0,5 km/h (0 Bft) O 90 4,6 C 0,0 km/h (0 Bft)
17.12.2015 08:30 5,5 C 5,5 C 95 % 1030,0 hPa 0,0 mm 0,0 km/h (0 Bft) SO 135 4,8 C 3,1 km/h (1 Bft)
17.12.2015 08:35 5,5 C 5,6 C 95 % 1030,5 hPa 0,0 mm 0,5 km/h (0 Bft) NO 45 4,8 C 2,8 km/h (1 Bft)
17.12.2015 08:40 5,5 C 5,6 C 95 % 1030,5 hPa 0,0 mm 0,5 km/h (0 Bft) O-NO 67 4,8 C 0,0 km/h (0 Bft)
17.12.2015 08:45 5,5 C 5,7 C 95 % 1030,5 hPa 0,0 mm 0,3 km/h (0 Bft) O-NO 67 4,8 C 0,0 km/h (0 Bft)
17.12.2015 08:50 5,5 C 5,8 C 95 % 1030,5 hPa 0,0 mm 0,0 km/h (0 Bft) O-NO 67 4,8 C 0,0 km/h (0 Bft)
17.12.2015 08:55 5,6 C 5,8 C 95 % 1030,4 hPa 0,0 mm 0,0 km/h (0 Bft) S 180 4,9 C 0,0 km/h (0 Bft)
17.12.2015 09:00 6,3 C 6,4 C 88 % 1030,4 hPa 0,0 mm 1,8 km/h (1 Bft) SW 225 4,5 C 7,0 km/h (2 Bft)
17.12.2015 09:05 6,0 C 6,5 C 94 % 1030,4 hPa 0,0 mm 2,3 km/h (1 Bft) SW 225 5,1 C 4,9 km/h (1 Bft)
17.12.2015 09:10 5,8 C 6,6 C 95 % 1030,4 hPa 0,0 mm 1,6 km/h (1 Bft) NO 45 5,1 C 0,0 km/h (0 Bft)
17.12.2015 09:15 5,7 C 6,4 C 95 % 1030,5 hPa 0,0 mm 0,5 km/h (0 Bft) NO 45 5,0 C 0,0 km/h (0 Bft)
17.12.2015 09:20 5,9 C 6,4 C 95 % 1030,5 hPa 0,0 mm 0,0 km/h (0 Bft) W-SW 247 5,2 C 2,8 km/h (1 Bft)
17.12.2015 09:25 5,9 C 6,6 C 95 % 1030,5 hPa 0,0 mm 0,5 km/h (0 Bft) S 180 5,2 C 0,0 km/h (0 Bft)
17.12.2015 09:30 6,1 C 7,0 C 88 % 1030,5 hPa 0,0 mm 0,5 km/h (0 Bft) S 180 4,3 C 0,0 km/h (0 Bft)
17.12.2015 09:35 6,2 C 7,2 C 88 % 1030,7 hPa 0,0 mm 0,0 km/h (0 Bft) NW 315 4,4 C 0,0 km/h (0 Bft)
17.12.2015 09:40 6,1 C 7,1 C 88 % 1030,7 hPa 0,0 mm 0,0 km/h (0 Bft) NW 315 4,3 C 0,0 km/h (0 Bft)
17.12.2015 09:45 6,2 C 7,0 C 88 % 1030,7 hPa 0,0 mm 0,0 km/h (0 Bft) W-SW 247 4,4 C 0,0 km/h (0 Bft)
17.12.2015 09:50 6,4 C 7,1 C 88 % 1030,7 hPa 0,0 mm 0,0 km/h (0 Bft) N-NW 337 4,6 C 0,0 km/h (0 Bft)
17.12.2015 09:55 6,5 C 7,2 C 88 % 1030,4 hPa 0,0 mm 0,0 km/h (0 Bft) N-NW 337 4,7 C 0,0 km/h (0 Bft)
17.12.2015 10:00 6,8 C 7,4 C 94 % 1030,4 hPa 0,0 mm 0,0 km/h (0 Bft) N-NW 337 5,9 C 0,0 km/h (0 Bft)
17.12.2015 10:05 6,9 C 7,5 C 88 % 1030,4 hPa 0,0 mm 0,0 km/h (0 Bft) N-NW 337 5,1 C 0,0 km/h (0 Bft)
17.12.2015 10:10 6,9 C 7,8 C 88 % 1030,4 hPa 0,0 mm 0,0 km/h (0 Bft) NW 315 5,1 C 0,0 km/h (0 Bft)
17.12.2015 10:15 7,0 C 7,9 C 88 % 1030,5 hPa 0,0 mm 0,0 km/h (0 Bft) NW 315 5,2 C 0,0 km/h (0 Bft)
17.12.2015 10:20 7,0 C 7,9 C 94 % 1030,5 hPa 0,0 mm 0,0 km/h (0 Bft) N-NW 337 6,1 C 0,0 km/h (0 Bft)
17.12.2015 10:25 7,0 C 7,9 C 88 % 1030,5 hPa 0,0 mm 0,0 km/h (0 Bft) N-NW 337 5,2 C 0,0 km/h (0 Bft)
17.12.2015 10:30 7,1 C 8,0 C 88 % 1030,5 hPa 0,0 mm 0,0 km/h (0 Bft) W-NW 292 5,2 C 0,0 km/h (0 Bft)
17.12.2015 10:35 7,2 C 8,1 C 88 % 1030,7 hPa 0,0 mm 0,0 km/h (0 Bft) W-SW 247 5,3 C 0,0 km/h (0 Bft)
17.12.2015 10:40 7,3 C 8,1 C 94 % 1030,7 hPa 0,0 mm 0,0 km/h (0 Bft) W-NW 292 6,4 C 0,0 km/h (0 Bft)
17.12.2015 10:45 7,2 C 8,1 C 94 % 1030,7 hPa 0,0 mm 0,0 km/h (0 Bft) W-NW 292 6,3 C 0,0 km/h (0 Bft)
17.12.2015 10:50 7,2 C 7,9 C 94 % 1030,7 hPa 0,0 mm 0,0 km/h (0 Bft) W-NW 292 6,3 C 0,0 km/h (0 Bft)
17.12.2015 10:55 7,2 C 8,0 C 94 % 1030,7 hPa 0,0 mm 0,0 km/h (0 Bft) W-NW 292 6,3 C 0,0 km/h (0 Bft)
17.12.2015 11:00 7,4 C 8,4 C 88 % 1030,7 hPa 0,0 mm 0,0 km/h (0 Bft) W-SW 247 5,5 C 0,0 km/h (0 Bft)
17.12.2015 11:05 7,5 C 8,8 C 94 % 1030,7 hPa 0,0 mm 0,0 km/h (0 Bft) W 270 6,6 C 0,0 km/h (0 Bft)
17.12.2015 11:10 7,8 C 9,3 C 94 % 1030,7 hPa 0,0 mm 0,0 km/h (0 Bft) W-NW 292 6,9 C 0,0 km/h (0 Bft)
17.12.2015 11:15 7,9 C 9,6 C 94 % 1030,7 hPa 0,0 mm 0,0 km/h (0 Bft) W-SW 247 7,0 C 0,0 km/h (0 Bft)
17.12.2015 11:20 8,2 C 10,2 C 88 % 1030,7 hPa 0,0 mm 0,0 km/h (0 Bft) N 360 6,3 C 0,0 km/h (0 Bft)
17.12.2015 11:25 8,4 C 10,6 C 88 % 1030,7 hPa 0,0 mm 0,0 km/h (0 Bft) N 360 6,5 C 0,0 km/h (0 Bft)
17.12.2015 11:30 8,6 C 11,1 C 88 % 1030,7 hPa 0,0 mm 0,0 km/h (0 Bft) N-NO 22 6,7 C 0,0 km/h (0 Bft)
17.12.2015 11:35 8,7 C 11,4 C 88 % 1030,4 hPa 0,0 mm 0,3 km/h (0 Bft) W 270 6,8 C 5,7 km/h (1 Bft)
17.12.2015 11:40 8,9 C 11,2 C 88 % 1030,4 hPa 0,0 mm 1,0 km/h (0 Bft) W-SW 247 7,0 C 0,0 km/h (0 Bft)
17.12.2015 11:45 8,9 C 10,9 C 94 % 1030,4 hPa 0,0 mm 1,8 km/h (1 Bft) S-SW 202 8,0 C 3,4 km/h (1 Bft)
17.12.2015 11:50 8,7 C 10,3 C 94 % 1030,4 hPa 0,0 mm 1,6 km/h (1 Bft) W 270 7,8 C 0,0 km/h (0 Bft)
17.12.2015 11:55 8,6 C 10,1 C 94 % 1030,3 hPa 0,0 mm 0,8 km/h (0 Bft) S-SW 202 7,7 C 0,0 km/h (0 Bft)
17.12.2015 12:00 8,5 C 10,0 C 94 % 1030,3 hPa 0,0 mm 0,8 km/h (0 Bft) S-SW 202 7,6 C 0,0 km/h (0 Bft)
17.12.2015 12:05 8,5 C 9,8 C 94 % 1030,3 hPa 0,0 mm 1,3 km/h (1 Bft) S 180 7,6 C 0,0 km/h (0 Bft)
17.12.2015 12:10 8,5 C 9,5 C 94 % 1030,3 hPa 0,0 mm 1,6 km/h (1 Bft) W-SW 247 7,6 C 0,0 km/h (0 Bft)
17.12.2015 12:15 8,5 C 9,4 C 94 % 1030,2 hPa 0,0 mm 1,6 km/h (1 Bft) W-SW 247 7,6 C 0,0 km/h (0 Bft)
17.12.2015 12:20 8,6 C 9,4 C 94 % 1030,2 hPa 0,0 mm 1,0 km/h (0 Bft) W 270 7,7 C 0,0 km/h (0 Bft)
17.12.2015 12:25 8,6 C 9,5 C 94 % 1030,2 hPa 0,0 mm 1,6 km/h (1 Bft) W-SW 247 7,7 C 10,6 km/h (2 Bft)
17.12.2015 12:30 8,8 C 9,9 C 93 % 1030,2 hPa 0,0 mm 2,1 km/h (1 Bft) NW 315 7,7 C 0,0 km/h (0 Bft)
17.12.2015 12:35 8,8 C 10,0 C 93 % 1030,0 hPa 0,0 mm 3,4 km/h (1 Bft) W 270 7,7 C 8,3 km/h (2 Bft)
17.12.2015 12:41 8,7 C 9,8 C 93 % 1030,0 hPa 0,0 mm 2,6 km/h (1 Bft) W-SW 247 7,6 C 4,1 km/h (1 Bft)
17.12.2015 12:45 8,6 C 9,7 C 93 % 1030,0 hPa 0,0 mm 2,3 km/h (1 Bft) NW 315 7,5 C 0,0 km/h (0 Bft)
17.12.2015 12:50 8,9 C 9,6 C 93 % 1030,0 hPa 0,0 mm 3,1 km/h (1 Bft) W-NW 292 7,8 C 3,9 km/h (1 Bft)
17.12.2015 12:55 8,8 C 9,6 C 93 % 1029,8 hPa 0,0 mm 2,6 km/h (1 Bft) W-SW 247 7,7 C 0,0 km/h (0 Bft)
17.12.2015 13:00 8,9 C 9,6 C 93 % 1029,8 hPa 0,0 mm 2,1 km/h (1 Bft) SW 225 7,8 C 4,4 km/h (1 Bft)
17.12.2015 13:05 8,9 C 9,7 C 93 % 1029,8 hPa 0,0 mm 2,1 km/h (1 Bft) SW 225 7,8 C 3,4 km/h (1 Bft)
17.12.2015 13:10 9,1 C 9,8 C 92 % 1029,8 hPa 0,0 mm 3,4 km/h (1 Bft) W-SW 247 7,9 C 8,0 km/h (2 Bft)
17.12.2015 13:15 9,4 C 10,0 C 92 % 1029,5 hPa 0,0 mm 4,7 km/h (1 Bft) SW 225 8,2 C 6,5 km/h (2 Bft)
17.12.2015 13:20 9,3 C 10,1 C 92 % 1029,5 hPa 0,0 mm 4,9 km/h (1 Bft) SW 225 8,1 C 4,4 km/h (1 Bft)
17.12.2015 13:25 9,2 C 10,1 C 92 % 1029,5 hPa 0,0 mm 3,9 km/h (1 Bft) SW 225 8,0 C 0,0 km/h (0 Bft)
17.12.2015 13:30 9,1 C 10,1 C 92 % 1029,5 hPa 0,0 mm 3,1 km/h (1 Bft) SW 225 7,9 C 4,4 km/h (1 Bft)
17.12.2015 13:35 9,1 C 10,0 C 91 % 1029,3 hPa 0,0 mm 3,1 km/h (1 Bft) SW 225 7,7 C 8,8 km/h (2 Bft)
17.12.2015 13:40 9,3 C 10,0 C 91 % 1029,3 hPa 0,0 mm 4,9 km/h (1 Bft) SW 225 7,9 C 5,2 km/h (1 Bft)
17.12.2015 13:45 9,2 C 10,1 C 91 % 1029,3 hPa 0,0 mm 5,2 km/h (1 Bft) S 180 7,8 C 2,8 km/h (1 Bft)
17.12.2015 13:50 9,1 C 10,1 C 90 % 1029,3 hPa 0,0 mm 2,8 km/h (1 Bft) SO 135 7,5 C 0,0 km/h (0 Bft)
17.12.2015 13:55 9,1 C 10,9 C 90 % 1029,2 hPa 0,0 mm 1,0 km/h (0 Bft) N-NO 22 7,5 C 0,0 km/h (0 Bft)
17.12.2015 14:00 9,3 C 12,0 C 90 % 1029,2 hPa 0,0 mm 1,6 km/h (1 Bft) S 180 7,7 C 5,7 km/h (1 Bft)
17.12.2015 14:05 9,1 C 11,8 C 90 % 1029,2 hPa 0,0 mm 1,8 km/h (1 Bft) S 180 7,5 C 2,6 km/h (1 Bft)
17.12.2015 14:10 8,8 C 11,1 C 90 % 1029,2 hPa 0,0 mm 1,0 km/h (0 Bft) SO 135 7,3 C 0,0 km/h (0 Bft)
17.12.2015 14:15 8,7 C 10,9 C 89 % 1029,2 hPa 0,0 mm 0,8 km/h (0 Bft) S 180 7,0 C 0,0 km/h (0 Bft)
17.12.2015 14:20 8,5 C 10,1 C 89 % 1029,2 hPa 0,0 mm 0,0 km/h (0 Bft) SO 135 6,8 C 0,0 km/h (0 Bft)
17.12.2015 14:25 8,5 C 9,6 C 89 % 1029,2 hPa 0,0 mm 0,0 km/h (0 Bft) S-SO 157 6,8 C 0,0 km/h (0 Bft)
17.12.2015 14:30 8,4 C 9,1 C 89 % 1029,2 hPa 0,0 mm 0,3 km/h (0 Bft) S-SO 157 6,7 C 0,0 km/h (0 Bft)
17.12.2015 14:35 8,4 C 8,9 C 89 % 1029,1 hPa 0,0 mm 0,3 km/h (0 Bft) S-SO 157 6,7 C 0,0 km/h (0 Bft)
17.12.2015 14:40 8,4 C 8,6 C 89 % 1029,1 hPa 0,0 mm 0,0 km/h (0 Bft) S-SO 157 6,7 C 0,0 km/h (0 Bft)
17.12.2015 14:45 8,3 C 8,9 C 89 % 1029,1 hPa 0,0 mm 0,0 km/h (0 Bft) SW 225 6,6 C 0,0 km/h (0 Bft)
17.12.2015 14:50 8,2 C 9,6 C 89 % 1029,1 hPa 0,0 mm 0,0 km/h (0 Bft) W-SW 247 6,5 C 0,0 km/h (0 Bft)
17.12.2015 14:55 8,2 C 10,2 C 89 % 1028,8 hPa 0,0 mm 0,0 km/h (0 Bft) S 180 6,5 C 0,0 km/h (0 Bft)
17.12.2015 15:00 8,3 C 11,3 C 89 % 1028,8 hPa 0,0 mm 0,0 km/h (0 Bft) SW 225 6,6 C 0,0 km/h (0 Bft)
17.12.2015 15:05 8,2 C 11,1 C 89 % 1028,8 hPa 0,0 mm 0,3 km/h (0 Bft) W-SW 247 6,5 C 3,9 km/h (1 Bft)
17.12.2015 15:10 8,3 C 10,1 C 89 % 1028,8 hPa 0,0 mm 0,3 km/h (0 Bft) SO 135 6,6 C 0,0 km/h (0 Bft)
17.12.2015 15:15 8,4 C 9,5 C 89 % 1028,5 hPa 0,0 mm 0,3 km/h (0 Bft) SO 135 6,7 C 0,0 km/h (0 Bft)
17.12.2015 15:20 8,4 C 8,9 C 89 % 1028,5 hPa 0,0 mm 0,0 km/h (0 Bft) SO 135 6,7 C 0,0 km/h (0 Bft)
17.12.2015 15:25 8,4 C 8,5 C 89 % 1028,5 hPa 0,0 mm 0,0 km/h (0 Bft) S 180 6,7 C 0,0 km/h (0 Bft)
17.12.2015 15:30 8,3 C 8,2 C 89 % 1028,5 hPa 0,0 mm 0,0 km/h (0 Bft) S 180 6,6 C 0,0 km/h (0 Bft)
17.12.2015 15:35 8,2 C 8,1 C 89 % 1028,7 hPa 0,0 mm 0,0 km/h (0 Bft) SO 135 6,5 C 0,0 km/h (0 Bft)
17.12.2015 15:40 8,2 C 8,1 C 89 % 1028,7 hPa 0,0 mm 0,0 km/h (0 Bft) S 180 6,5 C 0,0 km/h (0 Bft)
17.12.2015 15:45 8,1 C 8,0 C 89 % 1028,7 hPa 0,0 mm 0,0 km/h (0 Bft) S-SO 157 6,4 C 0,0 km/h (0 Bft)
17.12.2015 15:50 7,9 C 7,8 C 89 % 1028,7 hPa 0,0 mm 0,0 km/h (0 Bft) S-SO 157 6,2 C 0,0 km/h (0 Bft)
17.12.2015 15:55 7,8 C 7,7 C 89 % 1028,5 hPa 0,0 mm 0,0 km/h (0 Bft) S-SO 157 6,1 C 0,0 km/h (0 Bft)
17.12.2015 16:00 6,9 C 7,1 C 89 % 1028,5 hPa 0,0 mm 0,0 km/h (0 Bft) S 180 5,2 C 0,0 km/h (0 Bft)
17.12.2015 16:05 6,9 C 6,9 C 89 % 1028,5 hPa 0,0 mm 0,0 km/h (0 Bft) SO 135 5,2 C 0,0 km/h (0 Bft)
17.12.2015 16:10 6,8 C 6,7 C 89 % 1028,5 hPa 0,0 mm 0,0 km/h (0 Bft) S-SO 157 5,1 C 0,0 km/h (0 Bft)
17.12.2015 16:15 6,8 C 6,7 C 89 % 1028,2 hPa 0,0 mm 0,0 km/h (0 Bft) SO 135 5,1 C 0,0 km/h (0 Bft)
17.12.2015 16:20 6,7 C 6,5 C 89 % 1028,2 hPa 0,0 mm 0,0 km/h (0 Bft) SO 135 5,0 C 0,0 km/h (0 Bft)
17.12.2015 16:25 6,7 C 6,5 C 90 % 1028,2 hPa 0,0 mm 0,0 km/h (0 Bft) S-SO 157 5,2 C 0,0 km/h (0 Bft)
17.12.2015 16:30 6,6 C 6,4 C 90 % 1028,2 hPa 0,0 mm 0,0 km/h (0 Bft) S-SO 157 5,1 C 0,0 km/h (0 Bft)
17.12.2015 16:35 6,6 C 6,3 C 90 % 1028,2 hPa 0,0 mm 0,0 km/h (0 Bft) SO 135 5,1 C 0,0 km/h (0 Bft)
17.12.2015 16:40 6,4 C 6,1 C 90 % 1028,2 hPa 0,0 mm 0,0 km/h (0 Bft) SO 135 4,9 C 0,0 km/h (0 Bft)
17.12.2015 16:45 6,3 C 6,0 C 90 % 1028,2 hPa 0,0 mm 0,0 km/h (0 Bft) S 180 4,8 C 0,0 km/h (0 Bft)
17.12.2015 16:50 6,1 C 5,8 C 90 % 1028,2 hPa 0,0 mm 0,0 km/h (0 Bft) S 180 4,6 C 0,0 km/h (0 Bft)
17.12.2015 16:55 5,9 C 5,6 C 91 % 1028,1 hPa 0,0 mm 0,0 km/h (0 Bft) S 180 4,5 C 0,0 km/h (0 Bft)
17.12.2015 17:00 6,1 C 5,8 C 90 % 1028,1 hPa 0,0 mm 0,0 km/h (0 Bft) S-SO 157 4,6 C 0,0 km/h (0 Bft)
17.12.2015 17:05 5,9 C 5,6 C 91 % 1028,1 hPa 0,0 mm 0,0 km/h (0 Bft) SO 135 4,5 C 0,0 km/h (0 Bft)
17.12.2015 17:10 5,3 C 5,2 C 91 % 1028,1 hPa 0,0 mm 0,0 km/h (0 Bft) SO 135 4,0 C 0,0 km/h (0 Bft)
17.12.2015 17:15 5,2 C 5,1 C 91 % 1028,2 hPa 0,0 mm 0,0 km/h (0 Bft) SO 135 3,9 C 0,0 km/h (0 Bft)
17.12.2015 17:20 5,0 C 4,9 C 91 % 1028,2 hPa 0,0 mm 0,0 km/h (0 Bft) SO 135 3,7 C 0,0 km/h (0 Bft)
17.12.2015 17:25 4,7 C 4,6 C 91 % 1028,2 hPa 0,0 mm 0,0 km/h (0 Bft) SO 135 3,4 C 0,0 km/h (0 Bft)
17.12.2015 17:30 4,6 C 4,5 C 91 % 1028,2 hPa 0,0 mm 0,0 km/h (0 Bft) SO 135 3,3 C 0,0 km/h (0 Bft)
17.12.2015 17:35 4,6 C 4,5 C 91 % 1028,0 hPa 0,0 mm 0,0 km/h (0 Bft) SO 135 3,3 C 0,0 km/h (0 Bft)
17.12.2015 17:40 4,6 C 4,5 C 91 % 1028,0 hPa 0,0 mm 0,0 km/h (0 Bft) N-NO 22 3,3 C 0,0 km/h (0 Bft)
17.12.2015 17:45 4,5 C 4,4 C 91 % 1028,0 hPa 0,0 mm 0,0 km/h (0 Bft) NO 45 3,2 C 0,0 km/h (0 Bft)
17.12.2015 17:50 4,7 C 4,5 C 91 % 1028,0 hPa 0,0 mm 0,0 km/h (0 Bft) NO 45 3,4 C 0,0 km/h (0 Bft)
17.12.2015 17:55 4,6 C 4,4 C 91 % 1027,9 hPa 0,0 mm 0,0 km/h (0 Bft) NO 45 3,3 C 0,0 km/h (0 Bft)
17.12.2015 18:00 4,3 C 4,2 C 91 % 1027,9 hPa 0,0 mm 0,0 km/h (0 Bft) NO 45 3,0 C 0,0 km/h (0 Bft)
17.12.2015 18:05 4,2 C 4,1 C 91 % 1027,9 hPa 0,0 mm 0,0 km/h (0 Bft) NO 45 2,9 C 0,0 km/h (0 Bft)
17.12.2015 18:10 4,4 C 4,3 C 92 % 1027,9 hPa 0,0 mm 0,0 km/h (0 Bft) O-NO 67 3,2 C 0,0 km/h (0 Bft)
17.12.2015 18:15 4,2 C 4,1 C 91 % 1028,0 hPa 0,0 mm 0,0 km/h (0 Bft) S-SO 157 2,9 C 0,0 km/h (0 Bft)
17.12.2015 18:20 4,2 C 4,1 C 92 % 1028,0 hPa 0,0 mm 0,0 km/h (0 Bft) O-SO 112 3,0 C 0,0 km/h (0 Bft)
17.12.2015 18:25 4,2 C 4,1 C 92 % 1028,0 hPa 0,0 mm 0,0 km/h (0 Bft) O-SO 112 3,0 C 0,0 km/h (0 Bft)
17.12.2015 18:30 4,1 C 3,9 C 92 % 1028,0 hPa 0,0 mm 0,0 km/h (0 Bft) O-SO 112 2,9 C 0,0 km/h (0 Bft)
17.12.2015 18:35 3,9 C 3,8 C 92 % 1028,0 hPa 0,0 mm 0,0 km/h (0 Bft) O-SO 112 2,7 C 0,0 km/h (0 Bft)
17.12.2015 18:40 3,7 C 3,6 C 92 % 1028,0 hPa 0,0 mm 0,0 km/h (0 Bft) S 180 2,5 C 0,0 km/h (0 Bft)
17.12.2015 18:41 3,7 C 3,6 C 92 % 1028,0 hPa 0,0 mm 0,0 km/h (0 Bft) S 180 2,5 C 0,0 km/h (0 Bft)
17.12.2015 18:45 3,6 C 3,5 C 92 % 1028,0 hPa 0,0 mm 0,0 km/h (0 Bft) SO 135 2,4 C 0,0 km/h (0 Bft)
17.12.2015 18:50 4,2 C 4,0 C 92 % 1028,0 hPa 0,0 mm 0,0 km/h (0 Bft) S 180 3,0 C 0,0 km/h (0 Bft)
17.12.2015 18:55 4,6 C 4,3 C 92 % 1027,7 hPa 0,0 mm 0,0 km/h (0 Bft) S 180 3,4 C 0,0 km/h (0 Bft)
17.12.2015 19:00 4,9 C 4,6 C 93 % 1027,7 hPa 0,0 mm 0,0 km/h (0 Bft) S-SO 157 3,9 C 0,0 km/h (0 Bft)
17.12.2015 19:05 4,8 C 4,6 C 93 % 1027,7 hPa 0,0 mm 0,0 km/h (0 Bft) S 180 3,8 C 0,0 km/h (0 Bft)
17.12.2015 19:10 4,8 C 4,6 C 93 % 1027,7 hPa 0,0 mm 0,0 km/h (0 Bft) S-SO 157 3,8 C 2,8 km/h (1 Bft)
17.12.2015 19:15 4,7 C 4,5 C 93 % 1027,7 hPa 0,0 mm 0,0 km/h (0 Bft) S 180 3,7 C 0,0 km/h (0 Bft)
17.12.2015 19:20 4,0 C 4,0 C 93 % 1027,7 hPa 0,0 mm 0,0 km/h (0 Bft) O-SO 112 3,0 C 0,0 km/h (0 Bft)
17.12.2015 19:25 4,0 C 3,9 C 93 % 1027,7 hPa 0,0 mm 0,0 km/h (0 Bft) S 180 3,0 C 0,0 km/h (0 Bft)
17.12.2015 19:30 4,1 C 3,9 C 93 % 1027,7 hPa 0,0 mm 0,0 km/h (0 Bft) S 180 3,1 C 0,0 km/h (0 Bft)
17.12.2015 19:35 4,1 C 3,9 C 93 % 1027,5 hPa 0,0 mm 0,0 km/h (0 Bft) S 180 3,1 C 0,0 km/h (0 Bft)
17.12.2015 19:40 4,0 C 3,8 C 93 % 1027,5 hPa 0,0 mm 0,0 km/h (0 Bft) O-SO 112 3,0 C 0,0 km/h (0 Bft)
17.12.2015 19:45 3,8 C 3,6 C 93 % 1027,5 hPa 0,0 mm 0,0 km/h (0 Bft) S 180 2,8 C 0,0 km/h (0 Bft)
17.12.2015 19:50 4,1 C 3,8 C 93 % 1027,5 hPa 0,0 mm 0,0 km/h (0 Bft) SO 135 3,1 C 0,0 km/h (0 Bft)
17.12.2015 19:55 3,9 C 3,7 C 93 % 1027,4 hPa 0,0 mm 0,0 km/h (0 Bft) S 180 2,9 C 0,0 km/h (0 Bft)
17.12.2015 20:00 3,8 C 3,6 C 93 % 1027,4 hPa 0,0 mm 0,0 km/h (0 Bft) O-SO 112 2,8 C 0,0 km/h (0 Bft)
17.12.2015 20:05 3,7 C 3,5 C 93 % 1027,4 hPa 0,0 mm 0,0 km/h (0 Bft) O-SO 112 2,7 C 0,0 km/h (0 Bft)
17.12.2015 20:10 3,8 C 3,6 C 93 % 1027,4 hPa 0,0 mm 0,0 km/h (0 Bft) O-SO 112 2,8 C 0,0 km/h (0 Bft)
17.12.2015 20:15 3,5 C 3,4 C 93 % 1027,3 hPa 0,0 mm 0,0 km/h (0 Bft) O 90 2,5 C 0,0 km/h (0 Bft)
17.12.2015 20:20 3,6 C 3,4 C 93 % 1027,3 hPa 0,0 mm 0,0 km/h (0 Bft) O-SO 112 2,6 C 0,0 km/h (0 Bft)
17.12.2015 20:25 3,4 C 3,3 C 93 % 1027,3 hPa 0,0 mm 0,0 km/h (0 Bft) O-NO 67 2,4 C 0,0 km/h (0 Bft)
17.12.2015 20:30 3,0 C 2,9 C 93 % 1027,3 hPa 0,0 mm 0,3 km/h (0 Bft) N-NW 337 2,0 C 0,0 km/h (0 Bft)
17.12.2015 20:35 3,0 C 2,8 C 93 % 1027,7 hPa 0,0 mm 0,3 km/h (0 Bft) N-NW 337 2,0 C 0,0 km/h (0 Bft)
17.12.2015 20:40 3,1 C 2,8 C 93 % 1027,7 hPa 0,0 mm 0,0 km/h (0 Bft) NO 45 2,1 C 0,0 km/h (0 Bft)
17.12.2015 20:45 3,0 C 2,7 C 93 % 1027,7 hPa 0,0 mm 0,0 km/h (0 Bft) NO 45 2,0 C 0,0 km/h (0 Bft)
17.12.2015 20:50 2,9 C 2,6 C 94 % 1027,7 hPa 0,0 mm 0,0 km/h (0 Bft) NO 45 2,0 C 0,0 km/h (0 Bft)
17.12.2015 20:55 2,8 C 2,6 C 94 % 1027,5 hPa 0,0 mm 0,0 km/h (0 Bft) N-NW 337 1,9 C 0,0 km/h (0 Bft)
17.12.2015 21:00 2,7 C 2,5 C 94 % 1027,5 hPa 0,0 mm 0,0 km/h (0 Bft) NW 315 1,8 C 0,0 km/h (0 Bft)
17.12.2015 21:05 2,8 C 2,5 C 94 % 1027,5 hPa 0,0 mm 0,0 km/h (0 Bft) NW 315 1,9 C 0,0 km/h (0 Bft)
17.12.2015 21:10 2,4 C 2,2 C 94 % 1027,5 hPa 0,0 mm 0,0 km/h (0 Bft) NW 315 1,5 C 0,0 km/h (0 Bft)
17.12.2015 21:15 2,4 C 2,2 C 94 % 1027,4 hPa 0,0 mm 0,0 km/h (0 Bft) W-NW 292 1,5 C 0,0 km/h (0 Bft)
17.12.2015 21:20 2,2 C 2,0 C 94 % 1027,4 hPa 0,0 mm 0,0 km/h (0 Bft) W-NW 292 1,3 C 0,0 km/h (0 Bft)
17.12.2015 21:25 1,9 C 1,7 C 94 % 1027,4 hPa 0,0 mm 0,0 km/h (0 Bft) NW 315 1,0 C 0,0 km/h (0 Bft)
17.12.2015 21:30 1,8 C 1,6 C 94 % 1027,4 hPa 0,0 mm 0,0 km/h (0 Bft) W-NW 292 0,9 C 0,0 km/h (0 Bft)
17.12.2015 21:35 1,8 C 1,6 C 94 % 1027,3 hPa 0,0 mm 0,0 km/h (0 Bft) NW 315 0,9 C 0,0 km/h (0 Bft)
17.12.2015 21:40 2,3 C 2,0 C 94 % 1027,3 hPa 0,0 mm 0,0 km/h (0 Bft) NW 315 1,4 C 0,0 km/h (0 Bft)
17.12.2015 21:45 2,4 C 2,1 C 95 % 1027,3 hPa 0,0 mm 0,0 km/h (0 Bft) NW 315 1,7 C 0,0 km/h (0 Bft)
17.12.2015 21:50 2,5 C 2,3 C 95 % 1027,3 hPa 0,0 mm 0,3 km/h (0 Bft) NO 45 1,8 C 3,4 km/h (1 Bft)
17.12.2015 21:55 2,6 C 2,4 C 95 % 1027,0 hPa 0,0 mm 0,3 km/h (0 Bft) N-NO 22 1,9 C 0,0 km/h (0 Bft)
17.12.2015 22:00 2,2 C 2,1 C 95 % 1027,0 hPa 0,0 mm 0,0 km/h (0 Bft) N-NO 22 1,5 C 0,0 km/h (0 Bft)
17.12.2015 22:05 1,9 C 1,8 C 95 % 1027,0 hPa 0,0 mm 0,0 km/h (0 Bft) N-NO 22 1,2 C 0,0 km/h (0 Bft)
17.12.2015 22:10 2,1 C 1,9 C 95 % 1027,0 hPa 0,0 mm 0,0 km/h (0 Bft) O-NO 67 1,4 C 0,0 km/h (0 Bft)
17.12.2015 22:15 2,0 C 1,8 C 95 % 1027,3 hPa 0,0 mm 0,0 km/h (0 Bft) O-NO 67 1,3 C 0,0 km/h (0 Bft)
17.12.2015 22:20 2,2 C 1,9 C 95 % 1027,3 hPa 0,0 mm 0,0 km/h (0 Bft) N-NO 22 1,5 C 0,0 km/h (0 Bft)
17.12.2015 22:25 2,3 C 1,9 C 95 % 1027,3 hPa 0,0 mm 0,0 km/h (0 Bft) N-NO 22 1,6 C 0,0 km/h (0 Bft)
17.12.2015 22:30 1,6 C 1,4 C 95 % 1027,3 hPa 0,0 mm 0,0 km/h (0 Bft) N-NW 337 0,9 C 0,0 km/h (0 Bft)
17.12.2015 22:35 1,9 C 1,6 C 95 % 1027,0 hPa 0,0 mm 0,0 km/h (0 Bft) O-NO 67 1,2 C 0,0 km/h (0 Bft)
17.12.2015 22:40 1,4 C 1,2 C 95 % 1027,0 hPa 0,0 mm 0,0 km/h (0 Bft) O-NO 67 0,7 C 0,0 km/h (0 Bft)
17.12.2015 22:45 1,2 C 1,0 C 95 % 1027,0 hPa 0,0 mm 0,0 km/h (0 Bft) O-NO 67 0,5 C 0,0 km/h (0 Bft)
17.12.2015 22:50 1,3 C 1,1 C 95 % 1027,0 hPa 0,0 mm 0,0 km/h (0 Bft) O-NO 67 0,6 C 0,0 km/h (0 Bft)
17.12.2015 22:55 1,1 C 0,9 C 95 % 1026,8 hPa 0,0 mm 0,0 km/h (0 Bft) N 360 0,4 C 0,0 km/h (0 Bft)
17.12.2015 23:00 1,0 C 0,8 C 95 % 1026,8 hPa 0,0 mm 0,0 km/h (0 Bft) N-NO 22 0,3 C 0,0 km/h (0 Bft)
17.12.2015 23:05 1,0 C 0,8 C 95 % 1026,8 hPa 0,0 mm 0,0 km/h (0 Bft) N-NW 337 0,3 C 0,0 km/h (0 Bft)
17.12.2015 23:10 0,7 C 0,6 C 95 % 1026,8 hPa 0,0 mm 0,0 km/h (0 Bft) N-NW 337 -0,0 C 0,0 km/h (0 Bft)
17.12.2015 23:15 0,7 C 0,6 C 95 % 1026,8 hPa 0,0 mm 0,0 km/h (0 Bft) N-NO 22 -0,0 C 0,0 km/h (0 Bft)
17.12.2015 23:20 1,1 C 0,9 C 95 % 1026,8 hPa 0,0 mm 0,0 km/h (0 Bft) N-NO 22 0,4 C 0,0 km/h (0 Bft)
17.12.2015 23:25 1,0 C 0,8 C 95 % 1026,8 hPa 0,0 mm 0,0 km/h (0 Bft) N-NW 337 0,3 C 0,0 km/h (0 Bft)
17.12.2015 23:30 1,1 C 0,9 C 95 % 1026,8 hPa 0,0 mm 0,0 km/h (0 Bft) N 360 0,4 C 0,0 km/h (0 Bft)
17.12.2015 23:35 1,0 C 0,9 C 95 % 1026,9 hPa 0,0 mm 0,0 km/h (0 Bft) N-NW 337 0,3 C 0,0 km/h (0 Bft)
17.12.2015 23:40 1,2 C 1,0 C 95 % 1026,9 hPa 0,0 mm 0,0 km/h (0 Bft) N-NW 337 0,5 C 0,0 km/h (0 Bft)
17.12.2015 23:45 1,1 C 0,9 C 96 % 1026,9 hPa 0,0 mm 0,0 km/h (0 Bft) N-NO 22 0,5 C 0,0 km/h (0 Bft)
17.12.2015 23:50 1,4 C 1,1 C 96 % 1026,9 hPa 0,0 mm 0,0 km/h (0 Bft) N-NO 22 0,8 C 0,0 km/h (0 Bft)
17.12.2015 23:55 1,5 C 1,2 C 96 % 1026,5 hPa 0,0 mm 0,0 km/h (0 Bft) N-NW 337 0,9 C 0,0 km/h (0 Bft)
_ Min-Zeit 23:15 23:15 11:40 23:55 - 23:55 - - 23:15 23:55
Minimum _ 0,7 C 0,6 C 88 % 1026,5 hPa - 0,0 km/h (0 Bft) - - -0,0 C 0,0 km/h (0 Bft)
_ Max-Zeit 13:15 14:00 23:55 11:30 03:45 04:15 - - 13:15 04:40
Maximum _ 9,4 C 12,0 C 96 % 1030,7 hPa 0,7 mm 7,8 km/h
SW (2 Bft)
- - 8,2 C 21,5 km/h
W-SW (4 Bft)
Durchschnitt _ 5,9 C 6,2 C 93 % 1029,1 hPa #4,1 mm 1,2 km/h (1 Bft) SW - 4,8 C 1,7 km/h (1 Bft)